sensor_id;sensor_type;location;lat;lon;timestamp;pressure;altitude;pressure_sealevel;temperature;humidity
48386;BME280;34644;47.964;7.982;2022-12-18T00:01:52;97455.28;;;14.09;62.59
48386;BME280;34644;47.964;7.982;2022-12-18T00:08:53;97424.75;;;14.06;62.63
48386;BME280;34644;47.964;7.982;2022-12-18T00:15:53;97423.97;;;14.06;62.90
48386;BME280;34644;47.964;7.982;2022-12-18T00:22:53;97439.03;;;14.05;62.87
48386;BME280;34644;47.964;7.982;2022-12-18T00:29:54;97462.28;;;14.15;62.77
48386;BME280;34644;47.964;7.982;2022-12-18T00:36:54;97477.81;;;14.64;61.21
48386;BME280;34644;47.964;7.982;2022-12-18T00:43:55;97457.81;;;14.73;61.02
48386;BME280;34644;47.964;7.982;2022-12-18T00:50:56;97454.28;;;14.68;61.12
48386;BME280;34644;47.964;7.982;2022-12-18T00:57:56;97441.72;;;14.63;61.45
48386;BME280;34644;47.964;7.982;2022-12-18T01:04:56;97467.38;;;14.45;61.99
48386;BME280;34644;47.964;7.982;2022-12-18T01:11:56;97465.78;;;14.33;62.17
48386;BME280;34644;47.964;7.982;2022-12-18T01:18:57;97447.28;;;14.21;62.70
48386;BME280;34644;47.964;7.982;2022-12-18T01:25:57;97461.81;;;14.18;62.93
48386;BME280;34644;47.964;7.982;2022-12-18T01:32:58;97468.41;;;14.16;62.91
48386;BME280;34644;47.964;7.982;2022-12-18T01:39:58;97472.88;;;14.15;63.10
48386;BME280;34644;47.964;7.982;2022-12-18T01:46:59;97481.31;;;14.12;63.54
48386;BME280;34644;47.964;7.982;2022-12-18T01:53:59;97470.97;;;14.10;63.09
48386;BME280;34644;47.964;7.982;2022-12-18T02:01:00;97479.94;;;14.09;63.10
48386;BME280;34644;47.964;7.982;2022-12-18T02:09:02;97475.69;;;14.08;63.22
48386;BME280;34644;47.964;7.982;2022-12-18T02:15:31;97482.94;;;14.13;63.29
48386;BME280;34644;47.964;7.982;2022-12-18T02:36:38;97508.81;;;14.35;62.35
48386;BME280;34644;47.964;7.982;2022-12-18T02:43:40;97496.41;;;14.23;62.88
48386;BME280;34644;47.964;7.982;2022-12-18T02:50:44;97483.63;;;14.20;63.12
48386;BME280;34644;47.964;7.982;2022-12-18T02:57:56;97488.31;;;14.18;63.22
48386;BME280;34644;47.964;7.982;2022-12-18T03:05:07;97485.91;;;14.17;63.45
48386;BME280;34644;47.964;7.982;2022-12-18T03:12:18;97482.69;;;14.15;63.34
48386;BME280;34644;47.964;7.982;2022-12-18T03:19:24;97484.78;;;14.13;63.43
48386;BME280;34644;47.964;7.982;2022-12-18T03:26:26;97479.72;;;14.11;63.63
48386;BME280;34644;47.964;7.982;2022-12-18T03:33:34;97489.75;;;14.09;63.40
48386;BME280;34644;47.964;7.982;2022-12-18T03:40:43;97495.84;;;14.09;63.46
48386;BME280;34644;47.964;7.982;2022-12-18T03:48:04;97482.22;;;14.18;63.47
48386;BME280;34644;47.964;7.982;2022-12-18T03:55:12;97486.91;;;14.56;61.80
48386;BME280;34644;47.964;7.982;2022-12-18T04:02:15;97493.97;;;14.62;61.68
48386;BME280;34644;47.964;7.982;2022-12-18T04:09:16;97497.44;;;14.51;61.89
48386;BME280;34644;47.964;7.982;2022-12-18T04:16:20;97501.19;;;14.38;62.63
48386;BME280;34644;47.964;7.982;2022-12-18T04:23:24;97486.91;;;14.27;62.87
48386;BME280;34644;47.964;7.982;2022-12-18T04:30:26;97489.00;;;14.25;62.98
48386;BME280;34644;47.964;7.982;2022-12-18T04:37:27;97481.75;;;14.21;63.12
48386;BME280;34644;47.964;7.982;2022-12-18T04:44:28;97472.31;;;14.25;63.17
48386;BME280;34644;47.964;7.982;2022-12-18T04:51:28;97469.44;;;14.43;62.43
48386;BME280;34644;47.964;7.982;2022-12-18T04:58:29;97472.91;;;15.18;60.13
48386;BME280;34644;47.964;7.982;2022-12-18T05:05:29;97481.03;;;15.68;58.78
48386;BME280;34644;47.964;7.982;2022-12-18T05:12:30;97484.25;;;15.70;58.63
48386;BME280;34644;47.964;7.982;2022-12-18T05:19:31;97478.09;;;15.64;58.96
48386;BME280;34644;47.964;7.982;2022-12-18T05:26:31;97475.59;;;15.58;59.09
48386;BME280;34644;47.964;7.982;2022-12-18T05:33:32;97470.69;;;15.49;59.36
48386;BME280;34644;47.964;7.982;2022-12-18T05:40:32;97470.78;;;15.37;59.76
48386;BME280;34644;47.964;7.982;2022-12-18T05:47:33;97477.13;;;15.19;60.24
48386;BME280;34644;47.964;7.982;2022-12-18T05:54:33;97471.03;;;15.02;60.75
48386;BME280;34644;47.964;7.982;2022-12-18T06:01:33;97479.72;;;14.80;61.47
48386;BME280;34644;47.964;7.982;2022-12-18T06:08:34;97481.75;;;14.61;62.27
48386;BME280;34644;47.964;7.982;2022-12-18T06:15:36;97490.06;;;14.53;62.55
48386;BME280;34644;47.964;7.982;2022-12-18T06:22:36;97503.22;;;14.48;62.41
48386;BME280;34644;47.964;7.982;2022-12-18T06:29:36;97523.31;;;14.44;62.84
48386;BME280;34644;47.964;7.982;2022-12-18T06:36:37;97529.09;;;14.41;62.78
48386;BME280;34644;47.964;7.982;2022-12-18T06:43:37;97539.34;;;14.37;62.98
48386;BME280;34644;47.964;7.982;2022-12-18T06:50:37;97539.25;;;14.32;63.20
48386;BME280;34644;47.964;7.982;2022-12-18T06:57:41;97547.66;;;14.29;62.96
48386;BME280;34644;47.964;7.982;2022-12-18T07:04:42;97546.88;;;14.28;62.99
48386;BME280;34644;47.964;7.982;2022-12-18T07:11:42;97543.66;;;14.96;60.92
48386;BME280;34644;47.964;7.982;2022-12-18T07:18:42;97541.03;;;15.64;58.63
48386;BME280;34644;47.964;7.982;2022-12-18T07:25:42;97542.00;;;15.91;57.92
48386;BME280;34644;47.964;7.982;2022-12-18T07:32:42;97556.09;;;15.92;58.14
48386;BME280;34644;47.964;7.982;2022-12-18T07:39:43;97568.34;;;12.53;45.51
48386;BME280;34644;47.964;7.982;2022-12-18T07:46:43;97584.31;;;13.07;45.71
48386;BME280;34644;47.964;7.982;2022-12-18T07:53:43;97606.84;;;12.98;45.26
48386;BME280;34644;47.964;7.982;2022-12-18T08:00:43;97622.81;;;12.91;45.15
48386;BME280;34644;47.964;7.982;2022-12-18T08:07:44;97618.84;;;12.82;44.38
48386;BME280;34644;47.964;7.982;2022-12-18T08:14:44;97631.25;;;10.80;37.99
48386;BME280;34644;47.964;7.982;2022-12-18T08:21:44;97631.41;;;12.68;44.86
48386;BME280;34644;47.964;7.982;2022-12-18T08:28:45;97620.06;;;13.59;46.63
48386;BME280;34644;47.964;7.982;2022-12-18T08:35:45;97615.66;;;14.99;44.95
48386;BME280;34644;47.964;7.982;2022-12-18T08:42:45;97589.19;;;16.01;45.10
48386;BME280;34644;47.964;7.982;2022-12-18T08:50:04;97559.97;;;16.90;45.25
48386;BME280;34644;47.964;7.982;2022-12-18T08:57:06;97544.72;;;18.88;42.36
48386;BME280;34644;47.964;7.982;2022-12-18T09:04:07;97541.00;;;19.66;41.35
48386;BME280;34644;47.964;7.982;2022-12-18T09:11:21;97549.31;;;19.39;42.31
48386;BME280;34644;47.964;7.982;2022-12-18T09:18:22;97556.31;;;17.61;47.42
48386;BME280;34644;47.964;7.982;2022-12-18T09:25:23;97570.28;;;17.73;47.93
48386;BME280;34644;47.964;7.982;2022-12-18T09:32:23;97571.94;;;17.84;48.26
48386;BME280;34644;47.964;7.982;2022-12-18T09:39:23;97575.22;;;17.92;48.71
48386;BME280;34644;47.964;7.982;2022-12-18T09:46:28;97579.88;;;18.12;48.95
48386;BME280;34644;47.964;7.982;2022-12-18T09:53:31;97590.13;;;18.30;48.79
48386;BME280;34644;47.964;7.982;2022-12-18T10:00:32;97609.97;;;18.50;48.63
48386;BME280;34644;47.964;7.982;2022-12-18T10:22:38;97611.66;;;18.76;49.14
48386;BME280;34644;47.964;7.982;2022-12-18T10:29:14;97595.66;;;18.81;49.45
48386;BME280;34644;47.964;7.982;2022-12-18T10:36:14;97573.72;;;14.44;39.12
48386;BME280;34644;47.964;7.982;2022-12-18T10:43:16;97567.47;;;16.26;40.04
48386;BME280;34644;47.964;7.982;2022-12-18T11:04:33;97532.59;;;17.59;47.06
48386;BME280;34644;47.964;7.982;2022-12-18T11:11:35;97518.72;;;17.57;48.28
48386;BME280;34644;47.964;7.982;2022-12-18T11:18:35;97516.31;;;17.56;49.06
48386;BME280;34644;47.964;7.982;2022-12-18T11:25:36;97518.63;;;17.47;49.71
48386;BME280;34644;47.964;7.982;2022-12-18T11:32:40;97517.59;;;17.48;50.32
48386;BME280;34644;47.964;7.982;2022-12-18T11:39:49;97521.84;;;17.49;50.76
48386;BME280;34644;47.964;7.982;2022-12-18T11:46:51;97514.94;;;17.48;51.11
48386;BME280;34644;47.964;7.982;2022-12-18T11:53:55;97523.19;;;17.51;51.24
48386;BME280;34644;47.964;7.982;2022-12-18T12:01:05;97513.91;;;17.54;51.63
48386;BME280;34644;47.964;7.982;2022-12-18T12:15:19;97504.94;;;17.33;52.50
48386;BME280;34644;47.964;7.982;2022-12-18T12:22:37;97482.72;;;17.17;52.91
48386;BME280;34644;47.964;7.982;2022-12-18T12:29:46;97496.72;;;17.02;53.50
48386;BME280;34644;47.964;7.982;2022-12-18T12:36:54;97498.28;;;15.82;47.08
48386;BME280;34644;47.964;7.982;2022-12-18T12:43:56;97502.63;;;16.33;51.57
48386;BME280;34644;47.964;7.982;2022-12-18T12:50:58;97506.59;;;16.30;53.65
48386;BME280;34644;47.964;7.982;2022-12-18T12:58:12;97504.75;;;16.31;55.17
48386;BME280;34644;47.964;7.982;2022-12-18T13:12:18;97496.63;;;16.20;56.97
48386;BME280;34644;47.964;7.982;2022-12-18T13:19:37;97485.41;;;16.13;57.81
48386;BME280;34644;47.964;7.982;2022-12-18T13:26:37;97482.09;;;16.06;58.38
48386;BME280;34644;47.964;7.982;2022-12-18T13:33:39;97467.81;;;16.12;58.66
48386;BME280;34644;47.964;7.982;2022-12-18T13:47:41;97462.44;;;16.07;59.58
48386;BME280;34644;47.964;7.982;2022-12-18T13:54:43;97462.06;;;15.98;59.90
48386;BME280;34644;47.964;7.982;2022-12-18T14:02:11;97468.56;;;15.85;60.37
48386;BME280;34644;47.964;7.982;2022-12-18T14:09:05;97459.59;;;15.74;60.72
48386;BME280;34644;47.964;7.982;2022-12-18T14:16:06;97456.88;;;15.69;61.05
48386;BME280;34644;47.964;7.982;2022-12-18T14:23:24;97465.03;;;15.63;61.29
48386;BME280;34644;47.964;7.982;2022-12-18T14:30:26;97459.56;;;15.52;61.19
48386;BME280;34644;47.964;7.982;2022-12-18T14:37:27;97462.88;;;15.43;61.61
48386;BME280;34644;47.964;7.982;2022-12-18T14:44:27;97461.69;;;15.33;61.88
48386;BME280;34644;47.964;7.982;2022-12-18T14:51:28;97461.25;;;13.64;48.58
48386;BME280;34644;47.964;7.982;2022-12-18T14:58:29;97465.84;;;14.50;54.92
48386;BME280;34644;47.964;7.982;2022-12-18T15:05:30;97480.22;;;14.65;55.96
48386;BME280;34644;47.964;7.982;2022-12-18T15:12:35;97490.84;;;14.65;56.99
48386;BME280;34644;47.964;7.982;2022-12-18T15:26:36;97506.66;;;14.60;58.31
48386;BME280;34644;47.964;7.982;2022-12-18T15:33:41;97517.75;;;13.93;53.93
48386;BME280;34644;47.964;7.982;2022-12-18T15:40:42;97521.63;;;14.26;56.90
48386;BME280;34644;47.964;7.982;2022-12-18T15:47:42;97525.91;;;14.56;57.43
48386;BME280;34644;47.964;7.982;2022-12-18T15:54:43;97529.75;;;14.89;57.75
48386;BME280;34644;47.964;7.982;2022-12-18T16:02:02;97523.16;;;14.91;58.29
48386;BME280;34644;47.964;7.982;2022-12-18T16:09:02;97517.25;;;14.89;59.04
48386;BME280;34644;47.964;7.982;2022-12-18T16:16:02;97532.63;;;14.87;59.41
48386;BME280;34644;47.964;7.982;2022-12-18T16:23:03;97530.69;;;14.82;59.70
48386;BME280;34644;47.964;7.982;2022-12-18T16:30:03;97514.75;;;14.82;59.83
48386;BME280;34644;47.964;7.982;2022-12-18T16:37:04;97508.94;;;15.31;58.56
48386;BME280;34644;47.964;7.982;2022-12-18T16:44:05;97489.56;;;15.70;57.76
48386;BME280;34644;47.964;7.982;2022-12-18T16:51:05;97497.84;;;15.90;57.25
48386;BME280;34644;47.964;7.982;2022-12-18T16:58:06;97486.75;;;16.16;56.70
48386;BME280;34644;47.964;7.982;2022-12-18T17:05:06;97484.47;;;16.24;56.60
48386;BME280;34644;47.964;7.982;2022-12-18T17:12:07;97496.88;;;16.19;56.81
48386;BME280;34644;47.964;7.982;2022-12-18T17:19:07;97485.31;;;16.08;57.23
48386;BME280;34644;47.964;7.982;2022-12-18T17:26:07;97490.06;;;16.06;57.46
48386;BME280;34644;47.964;7.982;2022-12-18T17:33:09;97473.59;;;12.20;45.86
48386;BME280;34644;47.964;7.982;2022-12-18T17:40:09;97474.19;;;10.91;46.51
48386;BME280;34644;47.964;7.982;2022-12-18T17:47:10;97468.97;;;13.42;48.24
48386;BME280;34644;47.964;7.982;2022-12-18T17:54:11;97463.81;;;14.40;48.51
48386;BME280;34644;47.964;7.982;2022-12-18T18:01:16;97453.72;;;14.82;49.19
48386;BME280;34644;47.964;7.982;2022-12-18T18:08:16;97448.00;;;14.91;50.43
48386;BME280;34644;47.964;7.982;2022-12-18T18:15:17;97438.53;;;14.95;51.39
48386;BME280;34644;47.964;7.982;2022-12-18T18:22:17;97454.47;;;14.95;52.36
48386;BME280;34644;47.964;7.982;2022-12-18T18:29:20;97459.22;;;14.93;53.25
48386;BME280;34644;47.964;7.982;2022-12-18T18:36:21;97458.47;;;14.97;54.03
48386;BME280;34644;47.964;7.982;2022-12-18T18:43:22;97466.53;;;14.86;54.49
48386;BME280;34644;47.964;7.982;2022-12-18T18:50:23;97480.97;;;14.78;55.17
48386;BME280;34644;47.964;7.982;2022-12-18T18:57:23;97473.72;;;14.73;55.51
48386;BME280;34644;47.964;7.982;2022-12-18T19:04:23;97478.16;;;14.68;56.06
48386;BME280;34644;47.964;7.982;2022-12-18T19:11:24;97477.81;;;14.64;56.42
48386;BME280;34644;47.964;7.982;2022-12-18T19:18:43;97466.28;;;14.58;56.52
48386;BME280;34644;47.964;7.982;2022-12-18T19:25:43;97450.28;;;14.53;56.95
48386;BME280;34644;47.964;7.982;2022-12-18T19:32:44;97439.31;;;14.50;57.15
48386;BME280;34644;47.964;7.982;2022-12-18T19:39:44;97421.22;;;14.46;57.21
48386;BME280;34644;47.964;7.982;2022-12-18T19:46:44;97411.94;;;14.44;57.49
48386;BME280;34644;47.964;7.982;2022-12-18T19:53:45;97396.72;;;14.39;57.83
48386;BME280;34644;47.964;7.982;2022-12-18T20:00:46;97424.75;;;14.35;57.91
48386;BME280;34644;47.964;7.982;2022-12-18T20:07:58;97401.59;;;14.30;58.33
48386;BME280;34644;47.964;7.982;2022-12-18T20:14:58;97405.78;;;14.26;58.38
48386;BME280;34644;47.964;7.982;2022-12-18T20:21:59;97403.00;;;14.21;58.55
48386;BME280;34644;47.964;7.982;2022-12-18T20:28:59;97412.34;;;14.24;58.44
48386;BME280;34644;47.964;7.982;2022-12-18T20:36:00;97413.19;;;14.41;58.10
48386;BME280;34644;47.964;7.982;2022-12-18T20:43:01;97414.44;;;14.51;57.97
48386;BME280;34644;47.964;7.982;2022-12-18T20:50:01;97428.81;;;14.55;57.88
48386;BME280;34644;47.964;7.982;2022-12-18T20:57:02;97430.25;;;14.45;58.19
48386;BME280;34644;47.964;7.982;2022-12-18T21:04:02;97438.22;;;14.45;58.31
48386;BME280;34644;47.964;7.982;2022-12-18T21:18:31;97462.19;;;14.39;58.75
48386;BME280;34644;47.964;7.982;2022-12-18T21:25:32;97460.25;;;14.34;58.86
48386;BME280;34644;47.964;7.982;2022-12-18T21:32:32;97457.84;;;14.33;58.82
48386;BME280;34644;47.964;7.982;2022-12-18T21:39:32;97432.00;;;14.40;58.57
48386;BME280;34644;47.964;7.982;2022-12-18T21:46:35;97434.56;;;14.35;58.38
48386;BME280;34644;47.964;7.982;2022-12-18T21:53:36;97426.53;;;14.29;58.77
48386;BME280;34644;47.964;7.982;2022-12-18T22:00:36;97443.69;;;14.27;58.71
48386;BME280;34644;47.964;7.982;2022-12-18T22:07:36;97455.81;;;14.23;58.77
48386;BME280;34644;47.964;7.982;2022-12-18T22:14:36;97447.53;;;14.19;58.71
48386;BME280;34644;47.964;7.982;2022-12-18T22:21:38;97443.84;;;14.20;58.72
48386;BME280;34644;47.964;7.982;2022-12-18T22:28:39;97446.81;;;14.24;59.00
48386;BME280;34644;47.964;7.982;2022-12-18T22:36:03;97438.69;;;14.42;58.36
48386;BME280;34644;47.964;7.982;2022-12-18T22:43:03;97452.19;;;14.58;58.18
48386;BME280;34644;47.964;7.982;2022-12-18T22:50:04;97466.53;;;14.57;58.26
48386;BME280;34644;47.964;7.982;2022-12-18T22:57:04;97471.97;;;14.50;58.63
48386;BME280;34644;47.964;7.982;2022-12-18T23:04:05;97460.53;;;14.50;58.65
48386;BME280;34644;47.964;7.982;2022-12-18T23:11:05;97453.06;;;14.46;58.80
48386;BME280;34644;47.964;7.982;2022-12-18T23:18:05;97443.41;;;14.40;58.96
48386;BME280;34644;47.964;7.982;2022-12-18T23:25:05;97450.00;;;14.38;59.22
48386;BME280;34644;47.964;7.982;2022-12-18T23:32:06;97459.69;;;14.32;59.33
48386;BME280;34644;47.964;7.982;2022-12-18T23:39:09;97444.84;;;14.31;59.27
48386;BME280;34644;47.964;7.982;2022-12-18T23:46:10;97427.78;;;14.27;59.57
48386;BME280;34644;47.964;7.982;2022-12-18T23:53:11;97435.97;;;14.25;59.49
